sensor_id;sensor_type;location;lat;lon;timestamp;temperature;humidity
42019;DHT22;27703;51.980;5.848;2023-03-08T00:00:56;1.30;99.90
42019;DHT22;27703;51.980;5.848;2023-03-08T00:03:22;1.30;99.90
42019;DHT22;27703;51.980;5.848;2023-03-08T00:05:47;1.30;99.90
42019;DHT22;27703;51.980;5.848;2023-03-08T00:08:13;1.20;99.90
42019;DHT22;27703;51.980;5.848;2023-03-08T00:10:40;1.20;99.90
42019;DHT22;27703;51.980;5.848;2023-03-08T00:13:05;1.20;99.90
42019;DHT22;27703;51.980;5.848;2023-03-08T00:15:31;1.20;99.90
42019;DHT22;27703;51.980;5.848;2023-03-08T00:17:56;1.20;99.90
42019;DHT22;27703;51.980;5.848;2023-03-08T00:20:22;1.20;99.90
42019;DHT22;27703;51.980;5.848;2023-03-08T00:22:47;1.20;99.90
42019;DHT22;27703;51.980;5.848;2023-03-08T00:25:13;1.10;99.90
42019;DHT22;27703;51.980;5.848;2023-03-08T00:27:41;1.10;99.90
42019;DHT22;27703;51.980;5.848;2023-03-08T00:30:07;1.10;99.90
42019;DHT22;27703;51.980;5.848;2023-03-08T00:32:33;1.20;99.90
42019;DHT22;27703;51.980;5.848;2023-03-08T00:34:58;1.10;99.90
42019;DHT22;27703;51.980;5.848;2023-03-08T00:37:24;1.10;99.90
42019;DHT22;27703;51.980;5.848;2023-03-08T00:39:50;1.20;99.90
42019;DHT22;27703;51.980;5.848;2023-03-08T00:42:17;1.10;99.90
42019;DHT22;27703;51.980;5.848;2023-03-08T00:44:42;1.10;99.90
42019;DHT22;27703;51.980;5.848;2023-03-08T00:47:08;1.10;99.90
42019;DHT22;27703;51.980;5.848;2023-03-08T00:49:33;1.10;99.90
42019;DHT22;27703;51.980;5.848;2023-03-08T00:51:59;1.20;99.90
42019;DHT22;27703;51.980;5.848;2023-03-08T00:54:25;1.10;99.90
42019;DHT22;27703;51.980;5.848;2023-03-08T00:56:50;1.20;99.90
42019;DHT22;27703;51.980;5.848;2023-03-08T00:59:16;1.20;99.90
42019;DHT22;27703;51.980;5.848;2023-03-08T01:01:41;1.10;99.90
42019;DHT22;27703;51.980;5.848;2023-03-08T01:04:07;1.10;99.90
42019;DHT22;27703;51.980;5.848;2023-03-08T01:06:32;1.10;99.90
42019;DHT22;27703;51.980;5.848;2023-03-08T01:08:58;1.10;99.90
42019;DHT22;27703;51.980;5.848;2023-03-08T01:11:26;1.10;99.90
42019;DHT22;27703;51.980;5.848;2023-03-08T01:13:53;1.10;99.90
42019;DHT22;27703;51.980;5.848;2023-03-08T01:16:24;1.10;99.90
42019;DHT22;27703;51.980;5.848;2023-03-08T01:18:51;1.10;99.90
42019;DHT22;27703;51.980;5.848;2023-03-08T01:21:17;1.00;99.90
42019;DHT22;27703;51.980;5.848;2023-03-08T01:23:42;1.10;99.90
42019;DHT22;27703;51.980;5.848;2023-03-08T01:26:13;1.10;99.90
42019;DHT22;27703;51.980;5.848;2023-03-08T01:28:39;1.10;99.90
42019;DHT22;27703;51.980;5.848;2023-03-08T01:31:12;1.10;99.90
42019;DHT22;27703;51.980;5.848;2023-03-08T01:33:38;1.10;99.90
42019;DHT22;27703;51.980;5.848;2023-03-08T01:36:05;1.10;99.90
42019;DHT22;27703;51.980;5.848;2023-03-08T01:38:32;1.00;99.90
42019;DHT22;27703;51.980;5.848;2023-03-08T01:41:00;1.00;99.90
42019;DHT22;27703;51.980;5.848;2023-03-08T01:43:30;0.90;99.90
42019;DHT22;27703;51.980;5.848;2023-03-08T01:46:13;0.90;99.90
42019;DHT22;27703;51.980;5.848;2023-03-08T01:48:45;0.90;99.90
42019;DHT22;27703;51.980;5.848;2023-03-08T01:51:15;1.00;99.90
42019;DHT22;27703;51.980;5.848;2023-03-08T01:53:41;1.00;99.90
42019;DHT22;27703;51.980;5.848;2023-03-08T01:56:10;1.00;99.90
42019;DHT22;27703;51.980;5.848;2023-03-08T01:58:39;1.10;99.90
42019;DHT22;27703;51.980;5.848;2023-03-08T02:01:05;1.10;99.90
42019;DHT22;27703;51.980;5.848;2023-03-08T02:03:31;1.10;99.90
42019;DHT22;27703;51.980;5.848;2023-03-08T02:05:57;1.20;99.90
42019;DHT22;27703;51.980;5.848;2023-03-08T02:08:22;1.20;99.90
42019;DHT22;27703;51.980;5.848;2023-03-08T02:10:48;1.20;99.90
42019;DHT22;27703;51.980;5.848;2023-03-08T02:13:15;1.20;99.90
42019;DHT22;27703;51.980;5.848;2023-03-08T02:15:41;1.20;99.90
42019;DHT22;27703;51.980;5.848;2023-03-08T02:18:06;1.30;99.90
42019;DHT22;27703;51.980;5.848;2023-03-08T02:20:35;1.30;99.90
42019;DHT22;27703;51.980;5.848;2023-03-08T02:23:12;1.30;99.90
42019;DHT22;27703;51.980;5.848;2023-03-08T02:25:39;1.40;99.90
42019;DHT22;27703;51.980;5.848;2023-03-08T02:28:05;1.40;99.90
42019;DHT22;27703;51.980;5.848;2023-03-08T02:30:34;1.40;99.90
42019;DHT22;27703;51.980;5.848;2023-03-08T02:33:00;1.40;99.90
42019;DHT22;27703;51.980;5.848;2023-03-08T02:35:25;1.40;99.90
42019;DHT22;27703;51.980;5.848;2023-03-08T02:37:51;1.40;99.90
42019;DHT22;27703;51.980;5.848;2023-03-08T02:40:17;1.40;99.90
42019;DHT22;27703;51.980;5.848;2023-03-08T02:42:42;1.40;99.90
42019;DHT22;27703;51.980;5.848;2023-03-08T02:45:09;1.40;99.90
42019;DHT22;27703;51.980;5.848;2023-03-08T02:47:34;1.40;99.90
42019;DHT22;27703;51.980;5.848;2023-03-08T02:50:00;1.40;99.90
42019;DHT22;27703;51.980;5.848;2023-03-08T02:52:26;1.30;99.90
42019;DHT22;27703;51.980;5.848;2023-03-08T02:54:51;1.40;99.90
42019;DHT22;27703;51.980;5.848;2023-03-08T02:57:18;1.30;99.90
42019;DHT22;27703;51.980;5.848;2023-03-08T02:59:44;1.30;99.90
42019;DHT22;27703;51.980;5.848;2023-03-08T03:02:09;1.30;99.90
42019;DHT22;27703;51.980;5.848;2023-03-08T03:04:35;1.30;99.90
42019;DHT22;27703;51.980;5.848;2023-03-08T03:07:01;1.30;99.90
42019;DHT22;27703;51.980;5.848;2023-03-08T03:09:27;1.30;99.90
42019;DHT22;27703;51.980;5.848;2023-03-08T03:11:53;1.20;99.90
42019;DHT22;27703;51.980;5.848;2023-03-08T03:14:18;1.20;99.90
42019;DHT22;27703;51.980;5.848;2023-03-08T03:16:44;1.10;99.90
42019;DHT22;27703;51.980;5.848;2023-03-08T03:19:10;1.10;99.90
42019;DHT22;27703;51.980;5.848;2023-03-08T03:21:37;1.10;99.90
42019;DHT22;27703;51.980;5.848;2023-03-08T03:24:03;1.10;99.90
42019;DHT22;27703;51.980;5.848;2023-03-08T03:26:29;1.10;99.90
42019;DHT22;27703;51.980;5.848;2023-03-08T03:28:56;1.10;99.90
42019;DHT22;27703;51.980;5.848;2023-03-08T03:31:22;1.10;99.90
42019;DHT22;27703;51.980;5.848;2023-03-08T03:33:49;1.10;99.90
42019;DHT22;27703;51.980;5.848;2023-03-08T03:36:17;1.10;99.90
42019;DHT22;27703;51.980;5.848;2023-03-08T03:38:43;1.10;99.90
42019;DHT22;27703;51.980;5.848;2023-03-08T03:41:14;1.10;99.90
42019;DHT22;27703;51.980;5.848;2023-03-08T03:43:40;1.10;99.90
42019;DHT22;27703;51.980;5.848;2023-03-08T03:46:10;1.10;99.90
42019;DHT22;27703;51.980;5.848;2023-03-08T03:48:36;1.10;99.90
42019;DHT22;27703;51.980;5.848;2023-03-08T03:51:08;1.00;99.90
42019;DHT22;27703;51.980;5.848;2023-03-08T03:53:34;1.00;99.90
42019;DHT22;27703;51.980;5.848;2023-03-08T03:56:24;1.00;99.90
42019;DHT22;27703;51.980;5.848;2023-03-08T03:58:50;1.00;99.90
42019;DHT22;27703;51.980;5.848;2023-03-08T04:01:18;1.00;99.90
42019;DHT22;27703;51.980;5.848;2023-03-08T04:03:46;1.00;99.90
42019;DHT22;27703;51.980;5.848;2023-03-08T04:06:14;1.00;99.90
42019;DHT22;27703;51.980;5.848;2023-03-08T04:08:40;1.10;99.90
42019;DHT22;27703;51.980;5.848;2023-03-08T04:11:14;1.10;99.90
42019;DHT22;27703;51.980;5.848;2023-03-08T04:13:40;1.20;99.90
42019;DHT22;27703;51.980;5.848;2023-03-08T04:16:20;1.20;99.90
42019;DHT22;27703;51.980;5.848;2023-03-08T04:18:46;1.30;99.90
42019;DHT22;27703;51.980;5.848;2023-03-08T04:21:12;1.30;99.90
42019;DHT22;27703;51.980;5.848;2023-03-08T04:23:39;1.30;99.90
42019;DHT22;27703;51.980;5.848;2023-03-08T04:26:05;1.30;99.90
42019;DHT22;27703;51.980;5.848;2023-03-08T04:28:31;1.20;99.90
42019;DHT22;27703;51.980;5.848;2023-03-08T04:30:58;1.20;99.90
42019;DHT22;27703;51.980;5.848;2023-03-08T04:33:24;1.20;99.90
42019;DHT22;27703;51.980;5.848;2023-03-08T04:35:49;1.30;99.90
42019;DHT22;27703;51.980;5.848;2023-03-08T04:38:16;1.30;99.90
42019;DHT22;27703;51.980;5.848;2023-03-08T04:40:51;1.40;99.90
42019;DHT22;27703;51.980;5.848;2023-03-08T04:43:29;1.40;99.90
42019;DHT22;27703;51.980;5.848;2023-03-08T04:45:55;1.40;99.90
42019;DHT22;27703;51.980;5.848;2023-03-08T04:48:20;1.50;99.90
42019;DHT22;27703;51.980;5.848;2023-03-08T04:50:57;1.50;99.90
42019;DHT22;27703;51.980;5.848;2023-03-08T04:53:24;1.50;99.90
42019;DHT22;27703;51.980;5.848;2023-03-08T04:55:50;1.50;99.90
42019;DHT22;27703;51.980;5.848;2023-03-08T04:58:17;1.50;99.90
42019;DHT22;27703;51.980;5.848;2023-03-08T05:00:43;1.50;99.90
42019;DHT22;27703;51.980;5.848;2023-03-08T05:03:08;1.50;99.90
42019;DHT22;27703;51.980;5.848;2023-03-08T05:05:34;1.50;99.90
42019;DHT22;27703;51.980;5.848;2023-03-08T05:08:00;1.60;99.90
42019;DHT22;27703;51.980;5.848;2023-03-08T05:10:30;1.60;99.90
42019;DHT22;27703;51.980;5.848;2023-03-08T05:12:56;1.60;99.90
42019;DHT22;27703;51.980;5.848;2023-03-08T05:15:22;1.60;99.90
42019;DHT22;27703;51.980;5.848;2023-03-08T05:17:50;1.60;99.90
42019;DHT22;27703;51.980;5.848;2023-03-08T05:20:16;1.60;99.90
42019;DHT22;27703;51.980;5.848;2023-03-08T05:22:42;1.60;99.90
42019;DHT22;27703;51.980;5.848;2023-03-08T05:25:08;1.60;99.90
42019;DHT22;27703;51.980;5.848;2023-03-08T05:27:35;1.60;99.90
42019;DHT22;27703;51.980;5.848;2023-03-08T05:30:01;1.60;99.90
42019;DHT22;27703;51.980;5.848;2023-03-08T05:32:27;1.60;99.90
42019;DHT22;27703;51.980;5.848;2023-03-08T05:34:52;1.60;99.90
42019;DHT22;27703;51.980;5.848;2023-03-08T05:37:18;1.60;99.90
42019;DHT22;27703;51.980;5.848;2023-03-08T05:39:43;1.60;99.90
42019;DHT22;27703;51.980;5.848;2023-03-08T05:42:09;1.60;99.90
42019;DHT22;27703;51.980;5.848;2023-03-08T05:44:37;1.60;99.90
42019;DHT22;27703;51.980;5.848;2023-03-08T05:47:03;1.60;99.90
42019;DHT22;27703;51.980;5.848;2023-03-08T05:49:28;1.60;99.90
42019;DHT22;27703;51.980;5.848;2023-03-08T05:51:54;1.60;99.90
42019;DHT22;27703;51.980;5.848;2023-03-08T05:54:20;1.60;99.90
42019;DHT22;27703;51.980;5.848;2023-03-08T05:56:46;1.60;99.90
42019;DHT22;27703;51.980;5.848;2023-03-08T05:59:11;1.60;99.90
42019;DHT22;27703;51.980;5.848;2023-03-08T06:01:37;1.60;99.90
42019;DHT22;27703;51.980;5.848;2023-03-08T06:04:03;1.60;99.90
42019;DHT22;27703;51.980;5.848;2023-03-08T06:06:28;1.60;99.90
42019;DHT22;27703;51.980;5.848;2023-03-08T06:08:54;1.50;99.90
42019;DHT22;27703;51.980;5.848;2023-03-08T06:11:21;1.50;99.90
42019;DHT22;27703;51.980;5.848;2023-03-08T06:13:47;1.50;99.90
42019;DHT22;27703;51.980;5.848;2023-03-08T06:16:12;1.50;99.90
42019;DHT22;27703;51.980;5.848;2023-03-08T06:18:39;1.50;99.90
42019;DHT22;27703;51.980;5.848;2023-03-08T06:21:07;1.50;99.90
42019;DHT22;27703;51.980;5.848;2023-03-08T06:23:34;1.50;99.90
42019;DHT22;27703;51.980;5.848;2023-03-08T06:26:00;1.50;99.90
42019;DHT22;27703;51.980;5.848;2023-03-08T06:28:27;1.50;99.90
42019;DHT22;27703;51.980;5.848;2023-03-08T06:30:53;1.50;99.90
42019;DHT22;27703;51.980;5.848;2023-03-08T06:33:21;1.50;99.90
42019;DHT22;27703;51.980;5.848;2023-03-08T06:36:12;1.50;99.90
42019;DHT22;27703;51.980;5.848;2023-03-08T06:38:39;1.50;99.90
42019;DHT22;27703;51.980;5.848;2023-03-08T06:41:06;1.50;99.90
42019;DHT22;27703;51.980;5.848;2023-03-08T06:43:33;1.50;99.90
42019;DHT22;27703;51.980;5.848;2023-03-08T06:46:06;1.50;99.90
42019;DHT22;27703;51.980;5.848;2023-03-08T06:48:33;1.50;99.90
42019;DHT22;27703;51.980;5.848;2023-03-08T06:50:59;1.40;99.90
42019;DHT22;27703;51.980;5.848;2023-03-08T06:53:25;1.40;99.90
42019;DHT22;27703;51.980;5.848;2023-03-08T06:55:51;1.40;99.90
42019;DHT22;27703;51.980;5.848;2023-03-08T06:58:16;1.30;99.90
42019;DHT22;27703;51.980;5.848;2023-03-08T07:00:42;1.40;99.90
42019;DHT22;27703;51.980;5.848;2023-03-08T07:03:09;1.40;99.90
42019;DHT22;27703;51.980;5.848;2023-03-08T07:05:36;1.40;99.90
42019;DHT22;27703;51.980;5.848;2023-03-08T07:08:01;1.40;99.90
42019;DHT22;27703;51.980;5.848;2023-03-08T07:10:27;1.40;99.90
42019;DHT22;27703;51.980;5.848;2023-03-08T07:12:53;1.40;99.90
42019;DHT22;27703;51.980;5.848;2023-03-08T07:15:21;1.50;99.90
42019;DHT22;27703;51.980;5.848;2023-03-08T07:17:48;1.50;99.90
42019;DHT22;27703;51.980;5.848;2023-03-08T07:22:41;1.50;99.90
42019;DHT22;27703;51.980;5.848;2023-03-08T07:25:10;1.50;99.90
42019;DHT22;27703;51.980;5.848;2023-03-08T07:27:36;1.60;99.90
42019;DHT22;27703;51.980;5.848;2023-03-08T07:30:02;1.60;99.90
42019;DHT22;27703;51.980;5.848;2023-03-08T07:32:28;1.60;99.90
42019;DHT22;27703;51.980;5.848;2023-03-08T07:34:54;1.60;99.90
42019;DHT22;27703;51.980;5.848;2023-03-08T07:37:20;1.60;99.90
42019;DHT22;27703;51.980;5.848;2023-03-08T07:39:45;1.70;99.90
42019;DHT22;27703;51.980;5.848;2023-03-08T07:42:11;1.70;99.90
42019;DHT22;27703;51.980;5.848;2023-03-08T07:44:36;1.70;99.90
42019;DHT22;27703;51.980;5.848;2023-03-08T07:47:03;1.70;99.90
42019;DHT22;27703;51.980;5.848;2023-03-08T07:49:29;1.80;99.90
42019;DHT22;27703;51.980;5.848;2023-03-08T07:51:55;1.70;99.90
42019;DHT22;27703;51.980;5.848;2023-03-08T07:54:20;1.80;99.90
42019;DHT22;27703;51.980;5.848;2023-03-08T07:56:46;1.80;99.90
42019;DHT22;27703;51.980;5.848;2023-03-08T07:59:12;1.70;99.90
42019;DHT22;27703;51.980;5.848;2023-03-08T08:01:37;1.70;99.90
42019;DHT22;27703;51.980;5.848;2023-03-08T08:04:03;1.80;99.90
42019;DHT22;27703;51.980;5.848;2023-03-08T08:06:29;1.80;99.90
42019;DHT22;27703;51.980;5.848;2023-03-08T08:08:55;1.80;99.90
42019;DHT22;27703;51.980;5.848;2023-03-08T08:11:21;1.80;99.90
42019;DHT22;27703;51.980;5.848;2023-03-08T08:13:47;1.80;99.90
42019;DHT22;27703;51.980;5.848;2023-03-08T08:16:14;1.80;99.90
42019;DHT22;27703;51.980;5.848;2023-03-08T08:18:39;1.90;99.90
42019;DHT22;27703;51.980;5.848;2023-03-08T08:21:10;1.90;99.90
42019;DHT22;27703;51.980;5.848;2023-03-08T08:23:36;1.90;99.90
42019;DHT22;27703;51.980;5.848;2023-03-08T08:26:07;1.90;99.90
42019;DHT22;27703;51.980;5.848;2023-03-08T08:28:34;1.90;99.90
42019;DHT22;27703;51.980;5.848;2023-03-08T08:31:02;2.00;99.90
42019;DHT22;27703;51.980;5.848;2023-03-08T08:33:30;2.00;99.90
42019;DHT22;27703;51.980;5.848;2023-03-08T08:35:56;2.00;99.90
42019;DHT22;27703;51.980;5.848;2023-03-08T08:38:23;2.00;99.90
42019;DHT22;27703;51.980;5.848;2023-03-08T08:40:49;2.10;99.90
42019;DHT22;27703;51.980;5.848;2023-03-08T08:43:15;2.10;99.90
42019;DHT22;27703;51.980;5.848;2023-03-08T08:45:48;2.10;99.90
42019;DHT22;27703;51.980;5.848;2023-03-08T08:48:14;2.10;99.90
42019;DHT22;27703;51.980;5.848;2023-03-08T08:50:40;2.20;99.90
42019;DHT22;27703;51.980;5.848;2023-03-08T08:53:07;2.20;99.90
42019;DHT22;27703;51.980;5.848;2023-03-08T08:55:32;2.20;99.90
42019;DHT22;27703;51.980;5.848;2023-03-08T08:57:58;2.20;99.90
42019;DHT22;27703;51.980;5.848;2023-03-08T09:00:24;2.20;99.90
42019;DHT22;27703;51.980;5.848;2023-03-08T09:02:50;2.20;99.90
42019;DHT22;27703;51.980;5.848;2023-03-08T09:05:16;2.30;99.90
42019;DHT22;27703;51.980;5.848;2023-03-08T09:07:41;2.30;99.90
42019;DHT22;27703;51.980;5.848;2023-03-08T09:10:08;2.40;99.90
42019;DHT22;27703;51.980;5.848;2023-03-08T09:12:33;2.40;99.90
42019;DHT22;27703;51.980;5.848;2023-03-08T09:14:59;2.40;99.90
42019;DHT22;27703;51.980;5.848;2023-03-08T09:17:24;2.30;99.90
42019;DHT22;27703;51.980;5.848;2023-03-08T09:19:50;2.30;99.90
42019;DHT22;27703;51.980;5.848;2023-03-08T09:22:16;2.40;99.90
42019;DHT22;27703;51.980;5.848;2023-03-08T09:24:42;2.40;99.90
42019;DHT22;27703;51.980;5.848;2023-03-08T09:27:10;2.40;99.90
42019;DHT22;27703;51.980;5.848;2023-03-08T09:29:36;2.40;99.90
42019;DHT22;27703;51.980;5.848;2023-03-08T09:32:04;2.40;99.90
42019;DHT22;27703;51.980;5.848;2023-03-08T09:34:30;2.50;99.90
42019;DHT22;27703;51.980;5.848;2023-03-08T09:36:56;2.40;99.90
42019;DHT22;27703;51.980;5.848;2023-03-08T09:39:22;2.40;99.90
42019;DHT22;27703;51.980;5.848;2023-03-08T09:41:53;2.40;99.90
42019;DHT22;27703;51.980;5.848;2023-03-08T09:44:50;2.40;99.90
42019;DHT22;27703;51.980;5.848;2023-03-08T09:47:41;2.50;99.90
42019;DHT22;27703;51.980;5.848;2023-03-08T09:52:56;2.50;99.90
42019;DHT22;27703;51.980;5.848;2023-03-08T09:55:28;2.60;99.90
42019;DHT22;27703;51.980;5.848;2023-03-08T09:58:23;2.60;99.90
42019;DHT22;27703;51.980;5.848;2023-03-08T10:00:47;2.60;99.90
42019;DHT22;27703;51.980;5.848;2023-03-08T10:06:26;2.70;99.90
42019;DHT22;27703;51.980;5.848;2023-03-08T10:09:06;2.70;99.90
42019;DHT22;27703;51.980;5.848;2023-03-08T10:11:48;2.70;99.90
42019;DHT22;27703;51.980;5.848;2023-03-08T10:14:21;2.70;99.90
42019;DHT22;27703;51.980;5.848;2023-03-08T10:16:55;2.80;99.90
42019;DHT22;27703;51.980;5.848;2023-03-08T10:19:30;2.80;99.90
42019;DHT22;27703;51.980;5.848;2023-03-08T10:21:59;2.90;99.90
42019;DHT22;27703;51.980;5.848;2023-03-08T10:24:34;2.90;99.90
42019;DHT22;27703;51.980;5.848;2023-03-08T10:27:24;3.00;99.90
42019;DHT22;27703;51.980;5.848;2023-03-08T10:29:58;3.10;99.90
42019;DHT22;27703;51.980;5.848;2023-03-08T10:32:26;3.00;99.90
42019;DHT22;27703;51.980;5.848;2023-03-08T10:34:51;3.10;99.90
42019;DHT22;27703;51.980;5.848;2023-03-08T10:37:19;3.20;99.90
42019;DHT22;27703;51.980;5.848;2023-03-08T10:39:48;3.30;99.90
42019;DHT22;27703;51.980;5.848;2023-03-08T10:42:18;3.30;99.90
42019;DHT22;27703;51.980;5.848;2023-03-08T10:45:00;3.40;99.90
42019;DHT22;27703;51.980;5.848;2023-03-08T10:47:34;3.40;99.90
42019;DHT22;27703;51.980;5.848;2023-03-08T10:50:16;3.40;99.90
42019;DHT22;27703;51.980;5.848;2023-03-08T10:52:43;3.40;99.90
42019;DHT22;27703;51.980;5.848;2023-03-08T10:57:39;3.50;99.90
42019;DHT22;27703;51.980;5.848;2023-03-08T11:03:22;3.60;99.90
42019;DHT22;27703;51.980;5.848;2023-03-08T11:05:59;3.60;99.90
42019;DHT22;27703;51.980;5.848;2023-03-08T11:08:31;3.60;99.90
42019;DHT22;27703;51.980;5.848;2023-03-08T11:11:01;3.70;99.90
42019;DHT22;27703;51.980;5.848;2023-03-08T11:13:32;3.70;99.90
42019;DHT22;27703;51.980;5.848;2023-03-08T11:16:19;3.80;99.90
42019;DHT22;27703;51.980;5.848;2023-03-08T11:21:54;3.90;99.90
42019;DHT22;27703;51.980;5.848;2023-03-08T11:30:31;3.70;99.90
42019;DHT22;27703;51.980;5.848;2023-03-08T11:38:47;3.70;99.90
42019;DHT22;27703;51.980;5.848;2023-03-08T11:41:26;3.60;99.90
42019;DHT22;27703;51.980;5.848;2023-03-08T12:00:41;3.80;99.90
42019;DHT22;27703;51.980;5.848;2023-03-08T12:03:17;3.90;99.90
42019;DHT22;27703;51.980;5.848;2023-03-08T12:05:49;3.90;99.90
42019;DHT22;27703;51.980;5.848;2023-03-08T12:08:30;3.90;99.90
42019;DHT22;27703;51.980;5.848;2023-03-08T12:11:15;3.90;99.90
42019;DHT22;27703;51.980;5.848;2023-03-08T12:13:46;3.90;99.90
42019;DHT22;27703;51.980;5.848;2023-03-08T12:16:35;3.80;99.90
42019;DHT22;27703;51.980;5.848;2023-03-08T12:19:29;3.80;99.90
42019;DHT22;27703;51.980;5.848;2023-03-08T12:22:01;3.80;99.90
42019;DHT22;27703;51.980;5.848;2023-03-08T12:24:42;3.90;99.90
42019;DHT22;27703;51.980;5.848;2023-03-08T12:27:18;4.00;99.90
42019;DHT22;27703;51.980;5.848;2023-03-08T12:29:57;4.00;99.90
42019;DHT22;27703;51.980;5.848;2023-03-08T12:32:26;4.00;99.90
42019;DHT22;27703;51.980;5.848;2023-03-08T12:35:04;3.90;99.90
42019;DHT22;27703;51.980;5.848;2023-03-08T12:37:31;3.90;99.90
42019;DHT22;27703;51.980;5.848;2023-03-08T12:40:01;3.80;99.90
42019;DHT22;27703;51.980;5.848;2023-03-08T12:42:34;3.80;99.90
42019;DHT22;27703;51.980;5.848;2023-03-08T12:47:31;4.00;99.90
42019;DHT22;27703;51.980;5.848;2023-03-08T12:50:09;4.10;99.90
42019;DHT22;27703;51.980;5.848;2023-03-08T12:52:40;4.10;99.90
42019;DHT22;27703;51.980;5.848;2023-03-08T12:55:18;4.10;99.90
42019;DHT22;27703;51.980;5.848;2023-03-08T12:57:48;4.00;99.90
42019;DHT22;27703;51.980;5.848;2023-03-08T13:00:35;4.00;99.90
42019;DHT22;27703;51.980;5.848;2023-03-08T13:03:04;3.90;99.90
42019;DHT22;27703;51.980;5.848;2023-03-08T13:05:34;3.80;99.90
42019;DHT22;27703;51.980;5.848;2023-03-08T13:13:19;3.80;99.90
42019;DHT22;27703;51.980;5.848;2023-03-08T13:15:45;3.70;99.90
42019;DHT22;27703;51.980;5.848;2023-03-08T13:18:18;3.80;99.90
42019;DHT22;27703;51.980;5.848;2023-03-08T13:21:06;3.80;99.90
42019;DHT22;27703;51.980;5.848;2023-03-08T13:23:42;3.70;99.90
42019;DHT22;27703;51.980;5.848;2023-03-08T13:26:13;3.70;99.90
42019;DHT22;27703;51.980;5.848;2023-03-08T13:28:43;3.80;99.90
42019;DHT22;27703;51.980;5.848;2023-03-08T13:31:20;3.70;99.90
42019;DHT22;27703;51.980;5.848;2023-03-08T13:33:49;3.70;99.90
42019;DHT22;27703;51.980;5.848;2023-03-08T13:36:29;3.70;99.90
42019;DHT22;27703;51.980;5.848;2023-03-08T13:39:01;3.70;99.90
42019;DHT22;27703;51.980;5.848;2023-03-08T13:41:42;3.80;99.90
42019;DHT22;27703;51.980;5.848;2023-03-08T13:44:24;3.70;99.90
42019;DHT22;27703;51.980;5.848;2023-03-08T13:46:54;3.80;99.90
42019;DHT22;27703;51.980;5.848;2023-03-08T13:49:35;3.90;99.90
42019;DHT22;27703;51.980;5.848;2023-03-08T13:52:03;3.90;99.90
42019;DHT22;27703;51.980;5.848;2023-03-08T13:54:34;3.90;99.90
42019;DHT22;27703;51.980;5.848;2023-03-08T13:57:04;3.90;99.90
42019;DHT22;27703;51.980;5.848;2023-03-08T13:59:30;3.90;99.90
42019;DHT22;27703;51.980;5.848;2023-03-08T14:01:56;3.90;99.90
42019;DHT22;27703;51.980;5.848;2023-03-08T14:04:28;3.90;99.90
42019;DHT22;27703;51.980;5.848;2023-03-08T14:06:59;3.90;99.90
42019;DHT22;27703;51.980;5.848;2023-03-08T14:09:26;3.90;99.90
42019;DHT22;27703;51.980;5.848;2023-03-08T14:11:59;3.90;99.90
42019;DHT22;27703;51.980;5.848;2023-03-08T14:14:50;3.90;99.90
42019;DHT22;27703;51.980;5.848;2023-03-08T14:17:22;3.90;99.90
42019;DHT22;27703;51.980;5.848;2023-03-08T14:19:54;3.80;99.90
42019;DHT22;27703;51.980;5.848;2023-03-08T14:22:21;3.80;99.90
42019;DHT22;27703;51.980;5.848;2023-03-08T14:24:54;3.90;99.90
42019;DHT22;27703;51.980;5.848;2023-03-08T14:29:46;3.90;99.90
42019;DHT22;27703;51.980;5.848;2023-03-08T14:34:46;4.00;99.90
42019;DHT22;27703;51.980;5.848;2023-03-08T14:37:28;4.00;99.90
42019;DHT22;27703;51.980;5.848;2023-03-08T14:40:10;3.90;99.90
42019;DHT22;27703;51.980;5.848;2023-03-08T14:42:43;3.90;99.90
42019;DHT22;27703;51.980;5.848;2023-03-08T14:45:30;4.00;99.90
42019;DHT22;27703;51.980;5.848;2023-03-08T14:47:58;4.00;99.90
42019;DHT22;27703;51.980;5.848;2023-03-08T14:50:29;3.90;99.90
42019;DHT22;27703;51.980;5.848;2023-03-08T14:52:56;4.00;99.90
42019;DHT22;27703;51.980;5.848;2023-03-08T14:55:28;3.90;99.90
42019;DHT22;27703;51.980;5.848;2023-03-08T14:57:57;4.00;99.90
42019;DHT22;27703;51.980;5.848;2023-03-08T15:00:24;4.00;99.90
42019;DHT22;27703;51.980;5.848;2023-03-08T15:02:52;3.90;99.90
42019;DHT22;27703;51.980;5.848;2023-03-08T15:05:19;3.90;99.90
42019;DHT22;27703;51.980;5.848;2023-03-08T15:07:47;3.90;99.90
42019;DHT22;27703;51.980;5.848;2023-03-08T15:10:26;3.90;99.90
42019;DHT22;27703;51.980;5.848;2023-03-08T15:12:53;3.90;99.90
42019;DHT22;27703;51.980;5.848;2023-03-08T15:15:19;3.90;99.90
42019;DHT22;27703;51.980;5.848;2023-03-08T15:17:46;3.90;99.90
42019;DHT22;27703;51.980;5.848;2023-03-08T15:20:12;3.80;99.90
42019;DHT22;27703;51.980;5.848;2023-03-08T15:22:51;3.80;99.90
42019;DHT22;27703;51.980;5.848;2023-03-08T15:25:22;3.70;99.90
42019;DHT22;27703;51.980;5.848;2023-03-08T15:27:48;3.70;99.90
42019;DHT22;27703;51.980;5.848;2023-03-08T15:30:16;3.70;99.90
42019;DHT22;27703;51.980;5.848;2023-03-08T15:32:42;3.60;99.90
42019;DHT22;27703;51.980;5.848;2023-03-08T15:35:08;3.60;99.90
42019;DHT22;27703;51.980;5.848;2023-03-08T15:37:33;3.60;99.90
42019;DHT22;27703;51.980;5.848;2023-03-08T15:39:59;3.60;99.90
42019;DHT22;27703;51.980;5.848;2023-03-08T15:42:24;3.60;99.90
42019;DHT22;27703;51.980;5.848;2023-03-08T15:44:50;3.60;99.90
42019;DHT22;27703;51.980;5.848;2023-03-08T15:47:15;3.60;99.90
42019;DHT22;27703;51.980;5.848;2023-03-08T15:49:41;3.60;99.90
42019;DHT22;27703;51.980;5.848;2023-03-08T15:52:09;3.60;99.90
42019;DHT22;27703;51.980;5.848;2023-03-08T15:54:35;3.60;99.90
42019;DHT22;27703;51.980;5.848;2023-03-08T15:57:01;3.60;99.90
42019;DHT22;27703;51.980;5.848;2023-03-08T15:59:27;3.60;99.90
42019;DHT22;27703;51.980;5.848;2023-03-08T16:01:52;3.60;99.90
42019;DHT22;27703;51.980;5.848;2023-03-08T16:04:18;3.60;99.90
42019;DHT22;27703;51.980;5.848;2023-03-08T16:06:43;3.50;99.90
42019;DHT22;27703;51.980;5.848;2023-03-08T16:09:09;3.50;99.90
42019;DHT22;27703;51.980;5.848;2023-03-08T16:11:34;3.50;99.90
42019;DHT22;27703;51.980;5.848;2023-03-08T16:14:00;3.40;99.90
42019;DHT22;27703;51.980;5.848;2023-03-08T16:16:25;3.40;99.90
42019;DHT22;27703;51.980;5.848;2023-03-08T16:18:51;3.40;99.90
42019;DHT22;27703;51.980;5.848;2023-03-08T16:21:16;3.30;99.90
42019;DHT22;27703;51.980;5.848;2023-03-08T16:23:42;3.30;99.90
42019;DHT22;27703;51.980;5.848;2023-03-08T16:26:10;3.30;99.90
42019;DHT22;27703;51.980;5.848;2023-03-08T16:28:36;3.30;99.90
42019;DHT22;27703;51.980;5.848;2023-03-08T16:31:02;3.30;99.90
42019;DHT22;27703;51.980;5.848;2023-03-08T16:33:28;3.30;99.90
42019;DHT22;27703;51.980;5.848;2023-03-08T16:35:54;3.30;99.90
42019;DHT22;27703;51.980;5.848;2023-03-08T16:38:21;3.20;99.90
42019;DHT22;27703;51.980;5.848;2023-03-08T16:40:47;3.20;99.90
42019;DHT22;27703;51.980;5.848;2023-03-08T16:43:13;3.20;99.90
42019;DHT22;27703;51.980;5.848;2023-03-08T16:45:57;3.20;99.90
42019;DHT22;27703;51.980;5.848;2023-03-08T16:48:24;3.20;99.90
42019;DHT22;27703;51.980;5.848;2023-03-08T16:50:54;3.20;99.90
42019;DHT22;27703;51.980;5.848;2023-03-08T16:53:20;3.20;99.90